Time;durP1;ratioP1;P1;durP2;ratioP2;P2;SDS_P1;SDS_P2;PMS_P1;PMS_P2;Temp;Humidity;BMP_temperature;BMP_pressure;BME280_temperature;BME280_humidity;BME280_pressure;Samples;Min_cycle;Max_cycle;Signal;HPM_P1;HPM_P2
2022/09/09 00:00:44;;;;;;;13.47;8.40;;;19.80;93.80;;;20.30;60.27;95177.97;6175965;23;21006;-55
2022/09/09 00:03:17;;;;;;;13.77;8.53;;;19.80;94.00;;;20.28;60.61;95174.66;6177608;23;20413;-57
2022/09/09 00:05:51;;;;;;;10.10;7.83;;;19.80;94.10;;;20.24;60.54;95168.84;6176209;23;20437;-56
2022/09/09 00:08:21;;;;;;;12.10;8.07;;;19.80;94.20;;;20.22;60.62;95172.75;6176277;23;20479;-55
2022/09/09 00:10:51;;;;;;;14.93;8.40;;;19.70;94.40;;;20.19;60.56;95163.28;6175554;23;20999;-56
2022/09/09 00:13:21;;;;;;;10.07;9.07;;;19.70;94.40;;;20.17;60.84;95167.16;6177177;23;20502;-56
2022/09/09 00:15:56;;;;;;;11.63;8.10;;;19.70;94.60;;;20.14;60.85;95172.88;6175703;23;20875;-56
2022/09/09 00:18:28;;;;;;;8.57;7.70;;;19.70;94.70;;;20.12;60.74;95164.22;6176918;23;20405;-54
2022/09/09 00:20:59;;;;;;;9.47;7.73;;;19.70;94.80;;;20.11;60.98;95155.41;6174930;23;20389;-56
2022/09/09 00:23:29;;;;;;;8.60;7.80;;;19.70;94.90;;;20.09;60.68;95145.94;6176528;23;20844;-53
2022/09/09 00:26:04;;;;;;;8.73;7.93;;;19.60;94.90;;;20.06;61.45;95144.44;6175631;23;20451;-57
2022/09/09 00:28:32;;;;;;;9.13;7.73;;;19.60;95.10;;;20.02;61.10;95138.69;6176327;23;20459;-56
2022/09/09 00:31:03;;;;;;;10.47;8.13;;;19.60;95.20;;;19.99;61.46;95136.41;6176103;23;20404;-56
2022/09/09 00:33:30;;;;;;;21.00;8.30;;;19.50;95.30;;;19.97;61.45;95127.75;6176634;23;20449;-56
2022/09/09 00:35:59;;;;;;;12.43;8.40;;;19.50;95.00;;;19.93;61.03;95126.47;6175438;23;20394;-56
2022/09/09 00:38:29;;;;;;;16.40;8.20;;;19.50;95.10;;;19.87;61.15;95117.38;6176092;23;20499;-56
2022/09/09 00:41:01;;;;;;;11.43;9.30;;;19.50;95.20;;;19.86;61.24;95128.25;6176238;23;20456;-55
2022/09/09 00:43:31;;;;;;;14.60;9.37;;;19.40;95.40;;;19.83;61.89;95132.16;6175535;23;20704;-54
2022/09/09 00:46:33;;;;;;;14.33;9.47;;;19.40;95.60;;;19.80;62.16;95139.69;6175392;23;21094;-55
2022/09/09 00:49:05;;;;;;;8.77;7.87;;;19.40;95.80;;;19.76;61.58;95139.22;6175964;23;20813;-57
2022/09/09 00:51:44;;;;;;;13.40;8.70;;;19.30;95.70;;;19.76;61.71;95139.22;6175211;23;20402;-55
2022/09/09 00:54:28;;;;;;;18.17;9.00;;;19.30;96.00;;;19.74;62.30;95135.94;6175430;23;20425;-54
2022/09/09 00:57:04;;;;;;;10.00;9.00;;;19.30;96.30;;;19.77;62.23;95132.06;6175686;23;20397;-55
2022/09/09 00:59:37;;;;;;;16.70;7.53;;;19.30;96.30;;;19.76;62.14;95133.06;6175747;23;20805;-56
2022/09/09 01:02:09;;;;;;;12.33;8.70;;;19.30;96.30;;;19.74;62.24;95132.44;6176236;23;20433;-57
2022/09/09 01:04:37;;;;;;;10.03;8.40;;;19.30;96.30;;;19.73;62.42;95131.59;6176193;23;20486;-56
2022/09/09 01:07:10;;;;;;;13.13;7.90;;;19.30;96.30;;;19.71;62.17;95133.63;6176933;23;20432;-54
2022/09/09 01:09:45;;;;;;;8.87;7.97;;;19.30;96.50;;;19.66;62.21;95139.53;6175958;23;20417;-56
2022/09/09 01:12:16;;;;;;;11.20;8.10;;;19.20;97.00;;;19.64;62.79;95135.41;6175518;23;20492;-55
2022/09/09 01:14:47;;;;;;;9.63;8.73;;;19.20;96.80;;;19.63;62.56;95139.09;6175964;23;20476;-56
2022/09/09 01:17:18;;;;;;;10.27;8.73;;;19.20;97.00;;;19.62;62.44;95140.94;6176494;23;20801;-56
2022/09/09 01:19:59;;;;;;;9.07;8.23;;;19.20;97.10;;;19.60;63.29;95134.97;6175960;23;20414;-53
2022/09/09 01:22:36;;;;;;;19.63;8.87;;;19.10;97.10;;;19.58;62.71;95125.50;6175921;23;20390;-57
2022/09/09 01:25:30;;;;;;;9.93;8.50;;;19.10;97.10;;;19.55;62.99;95139.22;6174444;23;21191;-55
2022/09/09 01:28:01;;;;;;;9.87;8.87;;;19.10;97.30;;;19.51;62.64;95141.44;6176114;23;20448;-55
2022/09/09 01:30:28;;;;;;;14.47;8.60;;;19.10;97.20;;;19.48;63.19;95137.28;6175840;23;20499;-55
2022/09/09 01:32:58;;;;;;;8.43;7.53;;;19.00;97.40;;;19.46;63.03;95141.19;6178348;23;20910;-55
2022/09/09 01:35:35;;;;;;;12.20;8.37;;;19.00;97.40;;;19.44;62.95;95149.38;6178190;23;20469;-55
2022/09/09 01:38:02;;;;;;;10.97;7.57;;;19.00;97.50;;;19.42;62.73;95151.38;6178359;23;20448;-53
2022/09/09 01:40:29;;;;;;;12.40;7.97;;;19.00;97.60;;;19.41;63.24;95144.41;6178523;23;20417;-54
2022/09/09 01:42:58;;;;;;;9.30;8.27;;;19.00;97.60;;;19.41;63.10;95146.22;6177933;23;20413;-54
2022/09/09 01:45:25;;;;;;;9.57;8.13;;;19.00;97.70;;;19.39;62.98;95149.09;6178461;23;20464;-54
2022/09/09 01:47:53;;;;;;;10.73;7.47;;;18.90;97.50;;;19.38;62.72;95151.94;6178519;23;20914;-55
2022/09/09 01:50:20;;;;;;;9.30;7.67;;;18.90;97.50;;;19.35;63.33;95150.50;6178453;23;20421;-56
2022/09/09 01:52:50;;;;;;;10.87;8.07;;;18.90;97.50;;;19.33;62.71;95149.84;6178688;23;20464;-55
2022/09/09 01:55:17;;;;;;;8.67;7.87;;;18.90;97.40;;;19.30;62.38;95155.53;6178511;23;20480;-54
2022/09/09 01:57:48;;;;;;;7.77;6.87;;;18.90;97.30;;;19.29;62.37;95160.06;6178471;23;20452;-55
2022/09/09 02:00:16;;;;;;;12.73;7.60;;;18.80;97.20;;;19.28;62.72;95147.72;6178257;23;20825;-56
2022/09/09 02:02:50;;;;;;;9.03;8.23;;;18.80;97.20;;;19.27;62.62;95145.25;6177928;23;20980;-55
2022/09/09 02:05:29;;;;;;;9.37;7.30;;;18.80;97.20;;;19.25;62.67;95155.28;6178721;23;20491;-54
2022/09/09 02:08:00;;;;;;;8.90;7.73;;;18.80;97.20;;;19.22;62.09;95143.16;6177897;23;20443;-55
2022/09/09 02:10:33;;;;;;;10.97;8.37;;;18.80;97.20;;;19.22;63.06;95143.16;6177788;23;20421;-56
2022/09/09 02:13:03;;;;;;;8.80;7.47;;;18.80;97.30;;;19.18;62.09;95125.88;6178098;23;20398;-56
2022/09/09 02:15:34;;;;;;;12.20;8.33;;;18.70;97.10;;;19.14;62.29;95133.41;6177851;23;20483;-55
2022/09/09 02:18:01;;;;;;;9.37;8.47;;;18.70;97.20;;;19.12;62.63;95138.13;6178135;23;20397;-55
2022/09/09 02:20:32;;;;;;;9.47;8.27;;;18.70;97.30;;;19.09;62.73;95132.34;6178042;23;20517;-54
2022/09/09 02:22:59;;;;;;;8.90;7.63;;;18.70;97.30;;;19.06;62.63;95138.03;6178147;23;20393;-55
2022/09/09 02:25:27;;;;;;;8.93;7.67;;;18.60;97.30;;;19.05;63.03;95147.03;6176325;23;20488;-53
2022/09/09 02:27:55;;;;;;;13.20;8.30;;;18.60;97.40;;;19.04;62.88;95140.03;6177841;23;20436;-53
2022/09/09 02:30:22;;;;;;;15.00;8.40;;;18.60;97.40;;;19.03;62.54;95143.75;6177754;23;20480;-56
2022/09/09 02:32:51;;;;;;;8.67;7.57;;;18.60;97.50;;;19.01;62.77;95145.75;6176430;23;20459;-56
2022/09/09 02:35:21;;;;;;;8.40;7.60;;;18.60;97.50;;;18.99;63.18;95153.94;6176828;23;20544;-56
2022/09/09 02:37:49;;;;;;;10.83;8.50;;;18.60;97.80;;;18.98;63.11;95158.44;6176655;23;20599;-56
2022/09/09 02:40:17;;;;;;;9.47;8.40;;;18.60;97.70;;;18.96;63.30;95160.47;6177999;23;20436;-55
2022/09/09 02:42:45;;;;;;;16.43;10.20;;;18.50;97.80;;;18.94;62.71;95159.81;6176076;23;20748;-55
2022/09/09 02:45:13;;;;;;;14.50;9.10;;;18.50;97.70;;;18.93;63.23;95168.84;6176971;23;20534;-55
2022/09/09 02:47:43;;;;;;;10.70;8.77;;;18.50;97.70;;;18.91;63.36;95162.84;6177340;23;20735;-55
2022/09/09 02:50:15;;;;;;;9.67;8.77;;;18.50;97.80;;;18.90;63.40;95155.88;6176691;23;20473;-60
2022/09/09 02:52:52;;;;;;;21.03;9.47;;;18.50;97.90;;;18.89;63.42;95164.88;6176737;23;20452;-55
2022/09/09 02:55:24;;;;;;;8.73;7.83;;;18.50;97.90;;;18.89;63.40;95156.06;6176830;23;20499;-57
2022/09/09 02:57:51;;;;;;;8.97;7.83;;;18.50;97.80;;;18.88;63.55;95162.41;6177643;23;20730;-55
2022/09/09 03:00:25;;;;;;;11.33;8.33;;;18.50;97.90;;;18.86;63.41;95162.59;6176429;23;20742;-56
2022/09/09 03:02:53;;;;;;;18.90;9.00;;;18.40;97.90;;;18.85;63.53;95158.25;6177334;23;20501;-54
2022/09/09 03:05:22;;;;;;;15.40;8.40;;;18.40;98.00;;;18.85;63.45;95162.78;6176142;23;20536;-55
2022/09/09 03:07:50;;;;;;;16.00;9.00;;;18.40;97.90;;;18.82;63.14;95153.25;6176639;23;20464;-56
2022/09/09 03:10:17;;;;;;;10.77;9.23;;;18.40;98.00;;;18.81;63.67;95151.63;6176708;23;20421;-55
2022/09/09 03:12:45;;;;;;;11.13;9.13;;;18.40;98.00;;;18.79;63.26;95154.47;6176012;23;20468;-58
2022/09/09 03:15:12;;;;;;;10.60;8.50;;;18.40;98.00;;;18.78;63.10;95157.31;6176900;23;20820;-57
2022/09/09 03:17:40;;;;;;;11.20;8.77;;;18.30;98.10;;;18.77;63.38;95158.31;6177160;23;20493;-57
2022/09/09 03:20:08;;;;;;;9.47;8.47;;;18.40;98.10;;;18.75;63.23;95160.34;6176697;23;20464;-56
2022/09/09 03:22:36;;;;;;;10.93;8.13;;;18.30;98.20;;;18.75;63.33;95157.69;6176538;23;20481;-56
2022/09/09 03:25:05;;;;;;;9.60;8.07;;;18.30;98.20;;;18.73;63.92;95160.53;6176424;23;20445;-55
2022/09/09 03:27:32;;;;;;;14.30;8.97;;;18.30;98.30;;;18.72;63.26;95158.06;6177119;23;20416;-56
2022/09/09 03:30:03;;;;;;;13.57;8.83;;;18.30;98.30;;;18.70;64.01;95152.91;6176180;23;20421;-54
2022/09/09 03:32:31;;;;;;;11.10;8.60;;;18.30;98.50;;;18.69;63.90;95135.25;6175519;23;20456;-56
2022/09/09 03:34:58;;;;;;;19.10;8.50;;;18.30;98.50;;;18.68;63.90;95146.09;6176615;23;20438;-55
2022/09/09 03:37:25;;;;;;;13.20;7.80;;;18.30;98.50;;;18.67;63.45;95145.28;6176534;23;20788;-55
2022/09/09 03:39:55;;;;;;;12.97;8.47;;;18.30;98.50;;;18.66;63.80;95145.47;6176121;23;20429;-54
2022/09/09 03:42:22;;;;;;;14.23;9.30;;;18.20;98.40;;;18.64;64.07;95142.97;6177232;23;20433;-52
2022/09/09 03:44:50;;;;;;;12.20;8.27;;;18.20;98.40;;;18.62;64.00;95156.50;6177059;23;20788;-54
2022/09/09 03:47:19;;;;;;;11.83;8.60;;;18.20;98.40;;;18.61;64.41;95159.34;6177347;23;20937;-54
2022/09/09 03:49:46;;;;;;;10.37;9.47;;;18.20;98.70;;;18.59;63.82;95164.84;6176431;23;20500;-55
2022/09/09 03:52:13;;;;;;;12.57;8.83;;;18.10;98.70;;;18.59;63.83;95169.31;6177586;23;20890;-55
2022/09/09 03:54:42;;;;;;;16.63;9.33;;;18.20;98.80;;;18.58;63.87;95160.50;6175591;23;20422;-54
2022/09/09 03:57:10;;;;;;;16.77;9.40;;;18.20;98.70;;;18.57;64.37;95156.19;6176283;23;20412;-56
2022/09/09 03:59:38;;;;;;;14.77;8.50;;;18.20;98.90;;;18.56;64.45;95161.69;6175249;23;21033;-55
2022/09/09 04:02:05;;;;;;;13.10;9.97;;;18.20;98.90;;;18.55;64.81;95163.53;6177653;23;20747;-56
2022/09/09 04:04:32;;;;;;;15.90;9.33;;;18.10;99.00;;;18.55;64.17;95166.22;6177053;23;20955;-54
2022/09/09 04:06:59;;;;;;;10.50;9.40;;;18.10;99.00;;;18.57;64.56;95161.50;6177417;23;20402;-54
2022/09/09 04:09:27;;;;;;;9.63;8.67;;;18.10;99.10;;;18.58;64.24;95165.03;6176893;23;20467;-56
2022/09/09 04:11:54;;;;;;;14.30;10.47;;;18.10;99.00;;;18.60;64.43;95161.16;6176925;23;20859;-55
2022/09/09 04:14:23;;;;;;;12.33;9.70;;;18.20;99.00;;;18.60;64.31;95160.34;6177108;23;20432;-57
2022/09/09 04:16:50;;;;;;;12.63;9.47;;;18.20;99.10;;;18.60;64.14;95155.81;6176957;23;20406;-56
2022/09/09 04:19:17;;;;;;;9.60;8.47;;;18.20;99.10;;;18.60;64.52;95165.66;6177066;23;20417;-56
2022/09/09 04:21:44;;;;;;;12.43;9.17;;;18.20;99.10;;;18.62;64.59;95163.63;6176942;23;20410;-56
2022/09/09 04:24:12;;;;;;;18.50;9.43;;;18.20;99.10;;;18.63;64.02;95155.47;6176593;23;20433;-53
2022/09/09 04:26:39;;;;;;;21.93;9.57;;;18.20;99.10;;;18.65;64.53;95165.94;6174952;23;20969;-56
2022/09/09 04:29:07;;;;;;;17.00;9.63;;;18.20;99.20;;;18.68;64.67;95170.91;6175827;23;20812;-57
2022/09/09 04:31:36;;;;;;;11.67;10.00;;;18.20;99.20;;;18.70;64.57;95166.22;6176281;23;20406;-56
2022/09/09 04:34:05;;;;;;;10.07;9.03;;;18.20;99.20;;;18.75;64.68;95168.34;6175783;23;20451;-57
2022/09/09 04:36:33;;;;;;;21.33;9.73;;;18.30;99.20;;;18.75;64.08;95157.69;6176221;23;20410;-56
2022/09/09 04:39:01;;;;;;;17.07;9.90;;;18.30;99.10;;;18.76;63.91;95165.50;6176336;23;20505;-57
2022/09/09 04:41:28;;;;;;;15.93;10.17;;;18.30;99.10;;;18.77;64.21;95161.00;6175757;23;20464;-55
2022/09/09 04:43:55;;;;;;;10.27;8.87;;;18.40;99.00;;;18.82;63.73;95163.91;6175339;23;20421;-54
2022/09/09 04:46:23;;;;;;;18.63;10.97;;;18.30;98.90;;;18.86;63.83;95165.25;6175393;23;20449;-56
2022/09/09 04:48:53;;;;;;;15.17;10.30;;;18.40;99.00;;;18.89;64.10;95159.56;6174668;23;20425;-56
2022/09/09 04:51:20;;;;;;;18.90;11.37;;;18.40;98.90;;;18.94;64.29;95146.47;6176069;23;20404;-56
2022/09/09 04:53:49;;;;;;;21.83;12.03;;;18.50;99.00;;;19.01;63.54;95151.94;6176286;23;20811;-58
2022/09/09 04:56:17;;;;;;;16.00;10.80;;;18.50;98.90;;;19.02;63.42;95156.22;6176226;23;20993;-54
2022/09/09 04:58:45;;;;;;;25.00;10.50;;;18.60;98.60;;;19.03;63.34;95155.22;6176246;23;20495;-56
2022/09/09 05:01:13;;;;;;;20.60;10.43;;;18.60;98.60;;;19.06;63.43;95159.38;6175790;23;20492;-57
2022/09/09 05:03:41;;;;;;;15.43;10.13;;;18.60;98.70;;;19.11;63.90;95157.78;6176126;23;21009;-55
2022/09/09 05:06:11;;;;;;;16.63;11.13;;;18.70;98.90;;;19.17;63.94;95137.56;6175450;23;20449;-58
2022/09/09 05:08:38;;;;;;;189.00;19.23;;;18.70;98.90;;;19.26;64.14;95141.78;6176170;23;20432;-54
2022/09/09 05:11:13;;;;;;;16.73;9.63;;;18.80;99.10;;;19.38;63.43;95143.94;6175830;23;20401;-58
2022/09/09 05:13:40;;;;;;;26.10;10.90;;;18.90;98.80;;;19.51;63.72;95144.09;6176026;23;20476;-55
2022/09/09 05:16:10;;;;;;;32.00;10.73;;;19.10;98.90;;;19.67;62.83;95154.56;6175956;23;20656;-55
2022/09/09 05:18:38;;;;;;;26.83;9.93;;;19.20;98.60;;;19.80;62.96;95148.53;6175953;23;20433;-57
2022/09/09 05:21:06;;;;;;;37.73;10.13;;;19.30;98.40;;;19.91;62.58;95146.38;6176153;23;20410;-58
2022/09/09 05:23:35;;;;;;;22.73;10.20;;;19.40;98.30;;;20.00;62.13;95135.38;6176475;23;20428;-58
2022/09/09 05:26:02;;;;;;;18.67;11.37;;;19.50;98.10;;;20.09;62.11;95149.41;6176496;23;20445;-56
2022/09/09 05:28:30;;;;;;;18.37;11.07;;;19.60;97.80;;;20.20;61.45;95151.59;6176377;23;20833;-56
2022/09/09 05:30:58;;;;;;;16.93;11.13;;;19.70;97.60;;;20.33;61.24;95145.50;6175981;23;20416;-55
2022/09/09 05:33:26;;;;;;;22.33;10.43;;;19.80;97.40;;;20.42;61.08;95148.88;6175579;23;20421;-55
2022/09/09 05:35:58;;;;;;;22.37;10.73;;;19.90;97.30;;;20.54;60.95;95141.13;6175535;23;20906;-55
2022/09/09 05:38:26;;;;;;;18.60;10.63;;;20.00;97.20;;;20.66;60.63;95147.63;6175948;23;20425;-55
2022/09/09 05:40:55;;;;;;;13.80;10.30;;;20.10;96.90;;;20.85;60.34;95153.28;6175838;23;20409;-56
2022/09/09 05:43:23;;;;;;;15.17;10.20;;;20.30;96.70;;;21.05;59.96;95148.06;6176465;23;20432;-55
2022/09/09 05:46:00;;;;;;;27.43;9.67;;;20.40;96.60;;;21.25;59.35;95153.50;6175080;23;20977;-54
2022/09/09 05:48:30;;;;;;;22.20;10.17;;;20.60;96.30;;;21.45;58.87;95158.94;6174811;23;20432;-57
2022/09/09 05:50:58;;;;;;;17.13;9.40;;;20.80;95.80;;;21.63;58.14;95155.72;6175030;23;20405;-55
2022/09/09 05:53:25;;;;;;;20.80;11.77;;;21.00;95.40;;;21.81;58.07;95157.81;6175438;23;20463;-56
2022/09/09 05:56:01;;;;;;;18.63;10.40;;;21.20;95.20;;;22.01;57.41;95163.22;6176094;23;20488;-56
2022/09/09 05:58:28;;;;;;;27.83;11.67;;;21.40;94.90;;;22.18;57.07;95167.16;6177221;23;20414;-57
2022/09/09 06:01:03;;;;;;;18.00;11.50;;;21.60;94.60;;;22.37;56.67;95172.78;6175732;23;20421;-56
2022/09/09 06:03:30;;;;;;;20.23;10.60;;;21.80;94.10;;;22.48;56.63;95172.16;6176083;23;20865;-55
2022/09/09 06:06:01;;;;;;;19.83;11.00;;;21.90;94.30;;;22.62;55.68;95172.97;6176287;23;20449;-55
2022/09/09 06:08:28;;;;;;;13.13;10.07;;;22.00;93.60;;;22.73;55.90;95164.28;6175545;23;20500;-54
2022/09/09 06:11:03;;;;;;;24.77;11.63;;;22.10;93.30;;;22.88;56.06;95169.44;6175786;23;20401;-54
2022/09/09 06:13:31;;;;;;;11.73;10.53;;;22.20;93.20;;;23.08;55.22;95168.53;6175861;23;20544;-56
2022/09/09 06:15:58;;;;;;;20.13;11.00;;;22.40;93.00;;;23.26;54.74;95166.03;6175565;23;20842;-55
2022/09/09 06:18:25;;;;;;;17.17;10.40;;;22.60;92.90;;;23.50;54.79;95166.38;6176262;23;20433;-56
2022/09/09 06:21:00;;;;;;;16.73;10.97;;;22.80;92.60;;;23.75;54.79;95162.94;6177288;23;20472;-56
2022/09/09 06:23:28;;;;;;;23.53;10.70;;;23.00;92.40;;;23.99;53.97;95167.56;6178191;23;20479;-58
2022/09/09 06:26:05;;;;;;;15.07;11.27;;;23.30;92.00;;;24.17;53.32;95171.41;6179301;23;20445;-56
2022/09/09 06:28:32;;;;;;;19.97;11.10;;;23.50;91.20;;;24.27;53.45;95176.28;6178582;23;20460;-54
2022/09/09 06:31:00;;;;;;;17.93;11.43;;;23.60;91.00;;;24.42;52.87;95165.22;6178483;23;20414;-54
2022/09/09 06:33:28;;;;;;;19.03;10.10;;;23.70;90.80;;;24.62;52.95;95157.84;6178403;23;20495;-56
2022/09/09 06:35:56;;;;;;;17.63;9.70;;;23.90;90.50;;;24.87;52.10;95160.50;6177658;23;20397;-55
2022/09/09 06:38:24;;;;;;;18.13;11.00;;;24.10;90.20;;;25.13;51.65;95160.44;6177399;23;20401;-53
2022/09/09 06:40:55;;;;;;;16.63;9.57;;;24.40;89.80;;;25.37;51.55;95161.44;6178000;23;20914;-55
2022/09/09 06:43:24;;;;;;;10.47;9.43;;;24.60;88.70;;;25.62;51.14;95152.44;6177953;23;20428;-54
2022/09/09 06:45:55;;;;;;;21.30;10.23;;;24.90;87.70;;;25.87;50.09;95144.22;6177594;23;20698;-56
2022/09/09 06:48:23;;;;;;;12.53;9.90;;;25.10;86.70;;;26.11;49.92;95156.75;6177734;23;20405;-55
2022/09/09 06:50:50;;;;;;;16.23;9.40;;;25.40;85.40;;;26.41;48.89;95157.75;6177708;23;20406;-56
2022/09/09 06:53:18;;;;;;;18.83;9.03;;;25.70;84.00;;;26.71;48.69;95165.81;6177540;23;20524;-53
2022/09/09 06:55:46;;;;;;;14.60;8.17;;;25.90;82.20;;;26.98;48.86;95171.56;6177621;23;20441;-54
2022/09/09 06:58:14;;;;;;;11.77;8.20;;;26.20;82.60;;;27.23;49.41;95175.06;6177470;23;20425;-55
2022/09/09 07:00:42;;;;;;;17.07;8.30;;;26.50;83.80;;;27.34;49.51;95177.78;6178125;23;20890;-54
2022/09/09 07:03:11;;;;;;;17.03;8.50;;;26.60;84.50;;;27.40;49.16;95167.09;6178027;23;20463;-56
2022/09/09 07:05:38;;;;;;;14.80;8.20;;;26.70;83.20;;;27.32;47.40;95169.09;6177969;23;20575;-55
2022/09/09 07:08:05;;;;;;;17.60;8.83;;;26.70;78.10;;;27.21;47.53;95172.59;6177604;23;20656;-56
2022/09/09 07:10:34;;;;;;;11.00;7.77;;;26.60;77.50;;;27.13;48.64;95173.78;6177447;23;20409;-56
2022/09/09 07:13:02;;;;;;;15.30;8.80;;;26.50;79.70;;;27.15;48.62;95157.34;6176937;23;20485;-57
2022/09/09 07:15:29;;;;;;;11.27;9.83;;;26.50;79.70;;;27.10;48.04;95158.06;6177430;23;20734;-54
2022/09/09 07:18:02;;;;;;;9.43;8.43;;;26.50;77.90;;;26.99;47.04;95164.28;6176339;23;20448;-57
2022/09/09 07:20:29;;;;;;;12.70;9.40;;;26.40;76.10;;;26.92;47.70;95164.41;6175663;23;20421;-53
2022/09/09 07:22:58;;;;;;;11.50;8.97;;;26.30;76.50;;;26.96;47.54;95168.28;6176938;23;20401;-57
2022/09/09 07:25:27;;;;;;;17.53;8.67;;;26.30;76.30;;;27.07;48.84;95158.53;6177675;23;20413;-57
2022/09/09 07:27:54;;;;;;;10.60;8.33;;;26.30;79.60;;;27.27;47.87;95157.34;6177733;23;20795;-57
2022/09/09 07:30:22;;;;;;;18.53;8.20;;;26.50;77.90;;;27.47;48.27;95160.50;6177144;23;20475;-56
2022/09/09 07:32:51;;;;;;;10.10;7.90;;;26.70;78.90;;;27.70;47.92;95150.66;6177135;23;20409;-56
2022/09/09 07:35:20;;;;;;;12.70;8.20;;;26.90;77.40;;;27.90;48.59;95147.50;6177870;23;20964;-56
2022/09/09 07:37:48;;;;;;;11.53;8.77;;;27.10;79.80;;;28.09;47.47;95145.47;6176698;23;20463;-54
2022/09/09 07:40:15;;;;;;;25.80;9.00;;;27.30;78.60;;;28.30;47.31;95156.66;6177697;23;20479;-56
2022/09/09 07:42:42;;;;;;;13.33;7.93;;;27.60;75.60;;;28.55;45.98;95158.94;6177258;23;20475;-56
2022/09/09 07:45:09;;;;;;;8.10;6.13;;;27.80;74.20;;;28.88;46.42;95162.75;6175993;23;20428;-57
2022/09/09 07:47:37;;;;;;;17.03;6.10;;;28.20;73.90;;;29.27;46.43;95155.47;6176781;23;20460;-55
2022/09/09 07:50:04;;;;;;;10.63;6.53;;;28.60;74.10;;;29.68;45.14;95161.44;6177227;23;20460;-58
2022/09/09 07:52:34;;;;;;;9.00;6.87;;;29.10;72.70;;;29.95;44.08;95155.25;6177217;23;20421;-56
2022/09/09 07:55:02;;;;;;;16.20;7.80;;;29.40;68.70;;;30.19;44.86;95160.34;6177307;23;20433;-57
2022/09/09 07:57:30;;;;;;;18.67;6.87;;;29.70;69.50;;;30.52;44.68;95159.34;6176908;23;20401;-57
2022/09/09 07:59:57;;;;;;;18.33;7.50;;;30.00;69.20;;;30.68;42.90;95157.56;6177083;23;20420;-58
2022/09/09 08:02:25;;;;;;;6.43;5.80;;;30.20;65.40;;;30.70;42.49;95162.72;6176542;23;20268;-57
2022/09/09 08:04:52;;;;;;;16.43;6.30;;;30.30;64.70;;;30.58;41.89;95162.91;6176757;23;20416;-57
2022/09/09 08:07:21;;;;;;;7.80;6.37;;;30.20;62.90;;;30.43;42.34;95160.03;6177007;23;20503;-56
2022/09/09 08:09:50;;;;;;;7.77;6.07;;;30.10;63.10;;;30.29;42.12;95159.66;6176911;23;20185;-54
2022/09/09 08:12:18;;;;;;;11.93;6.87;;;29.90;63.60;;;30.15;40.96;95149.19;6177562;23;20252;-56
2022/09/09 08:14:45;;;;;;;9.23;6.50;;;29.80;59.90;;;30.00;40.74;95147.13;6176599;23;20260;-57
2022/09/09 08:17:12;;;;;;;10.37;6.30;;;29.60;59.70;;;29.94;41.21;95159.00;6177238;23;20319;-56
2022/09/09 08:19:39;;;;;;;14.10;5.97;;;29.50;60.60;;;29.89;41.83;95161.69;6176261;23;20929;-55
2022/09/09 08:22:07;;;;;;;9.60;6.37;;;29.50;60.60;;;29.93;42.31;95146.53;6176634;23;20459;-57
2022/09/09 08:24:34;;;;;;;9.23;6.33;;;29.50;62.00;;;29.99;41.21;95148.25;6176572;23;20424;-57
2022/09/09 08:27:03;;;;;;;12.73;6.87;;;29.60;60.60;;;29.94;41.29;95144.63;6177141;23;20449;-57
2022/09/09 08:29:30;;;;;;;14.07;6.30;;;29.60;59.70;;;29.78;40.96;95140.94;6176249;23;20421;-56
2022/09/09 08:31:59;;;;;;;7.40;6.70;;;29.40;59.30;;;29.65;41.27;95142.13;6176923;23;20401;-57
2022/09/09 08:34:27;;;;;;;12.70;6.40;;;29.30;59.50;;;29.55;40.75;95140.09;6176419;23;20452;-55
2022/09/09 08:36:55;;;;;;;11.43;5.50;;;29.10;59.00;;;29.53;41.95;95136.00;6176808;23;20397;-59
2022/09/09 08:39:22;;;;;;;11.50;6.10;;;29.10;60.20;;;29.55;41.32;95142.81;6176778;23;20421;-57
2022/09/09 08:42:35;;;;;;;9.50;6.20;;;29.00;60.30;;;29.58;41.02;95142.31;6176664;23;20404;-55
2022/09/09 08:45:20;;;;;;;10.17;7.13;;;29.00;60.20;;;29.64;41.14;95130.47;6176655;23;20861;-55
2022/09/09 08:47:56;;;;;;;5.80;5.37;;;29.10;60.10;;;29.75;41.86;95138.72;6176576;23;20453;-57
2022/09/09 08:50:27;;;;;;;7.93;6.27;;;29.10;60.70;;;29.85;42.15;95134.25;6176889;23;20496;-55
2022/09/09 08:53:00;;;;;;;9.23;7.37;;;29.20;60.90;;;29.99;41.87;95139.25;6176813;23;20740;-54
2022/09/09 08:55:35;;;;;;;13.60;6.20;;;29.30;60.60;;;30.16;40.82;95133.72;6176079;23;20421;-56
2022/09/09 08:58:10;;;;;;;13.10;7.20;;;29.40;60.00;;;30.32;40.33;95138.22;6176435;23;20455;-55
2022/09/09 09:00:50;;;;;;;10.53;7.23;;;29.60;59.20;;;30.34;40.10;95132.53;6176630;23;20397;-56
2022/09/09 09:03:23;;;;;;;9.23;6.10;;;29.70;58.80;;;30.28;40.29;95136.28;6176374;23;20161;-58
2022/09/09 09:05:55;;;;;;;13.73;6.83;;;29.60;57.90;;;30.20;38.80;95132.97;6176231;23;20389;-56
2022/09/09 09:08:28;;;;;;;7.63;6.30;;;29.50;56.60;;;30.15;39.47;95134.81;6175900;23;20189;-56
2022/09/09 09:10:58;;;;;;;10.63;6.40;;;29.50;57.30;;;30.08;39.59;95132.31;6176249;23;20838;-56
2022/09/09 09:13:33;;;;;;;10.43;6.20;;;29.40;57.40;;;30.01;40.00;95137.94;6176235;23;20435;-57
2022/09/09 09:16:04;;;;;;;15.53;6.10;;;29.40;58.10;;;29.95;39.96;95133.53;6176327;23;20436;-57
2022/09/09 09:18:33;;;;;;;11.90;5.57;;;29.30;57.40;;;30.03;40.72;95129.53;6176300;23;20417;-56
2022/09/09 09:21:05;;;;;;;13.00;6.17;;;29.30;58.60;;;30.24;40.08;95132.44;6176236;23;20408;-54
2022/09/09 09:23:40;;;;;;;7.17;5.77;;;29.50;58.30;;;30.39;39.39;95125.28;6176803;23;20842;-56
2022/09/09 09:26:08;;;;;;;11.47;6.63;;;29.60;57.60;;;30.50;39.18;95122.66;6176147;23;20948;-54
2022/09/09 09:28:37;;;;;;;11.73;5.70;;;29.70;57.00;;;30.53;39.54;95133.81;6176355;23;20205;-56
2022/09/09 09:31:06;;;;;;;11.70;6.60;;;29.80;57.00;;;30.61;40.26;95135.22;6175535;23;20460;-55
2022/09/09 09:33:36;;;;;;;15.13;6.50;;;29.80;57.60;;;30.70;39.11;95124.72;6175452;23;20508;-57
2022/09/09 09:36:08;;;;;;;16.40;6.40;;;29.90;57.00;;;30.77;39.60;95121.75;6176676;23;20878;-55
2022/09/09 09:38:35;;;;;;;14.43;5.77;;;30.00;57.30;;;30.82;39.91;95124.53;6176666;23;20654;-55
2022/09/09 09:41:03;;;;;;;12.90;6.23;;;30.10;56.40;;;30.81;38.92;95120.97;6176536;23;20170;-56
2022/09/09 09:43:31;;;;;;;12.90;6.90;;;30.10;56.60;;;30.67;38.94;95106.22;6175852;23;20189;-56
2022/09/09 09:46:00;;;;;;;12.10;6.70;;;30.00;55.70;;;30.41;39.24;95107.94;6176208;23;20165;-55
2022/09/09 09:48:28;;;;;;;14.77;7.17;;;29.80;56.20;;;30.24;39.92;95113.44;6176580;23;20657;-56
2022/09/09 09:50:57;;;;;;;7.30;5.57;;;29.60;56.20;;;30.07;39.39;95105.44;6176237;23;20177;-57
2022/09/09 09:53:26;;;;;;;12.93;5.97;;;29.40;56.50;;;29.87;40.26;95098.75;6178023;23;20223;-56
2022/09/09 09:55:58;;;;;;;8.13;6.97;;;29.30;56.70;;;29.70;39.88;95104.25;6178063;23;20169;-56
2022/09/09 09:58:26;;;;;;;15.13;6.50;;;29.10;57.20;;;29.61;40.15;95092.22;6178566;23;20240;-54
2022/09/09 10:00:54;;;;;;;19.67;6.47;;;29.00;57.90;;;29.55;40.50;95091.31;6178005;23;20176;-56
2022/09/09 10:03:27;;;;;;;9.30;5.90;;;28.90;57.80;;;29.49;40.61;95092.34;6177323;23;20404;-55
2022/09/09 10:05:56;;;;;;;10.93;6.30;;;28.80;58.20;;;29.43;40.84;95105.00;6177959;23;20166;-53
2022/09/09 10:08:23;;;;;;;9.90;7.23;;;28.80;58.70;;;29.37;41.24;95111.44;6177949;23;20288;-57
2022/09/09 10:11:17;;;;;;;8.80;7.10;;;28.70;58.80;;;29.30;41.93;95110.81;6177706;23;20173;-55
2022/09/09 10:13:51;;;;;;;10.13;6.10;;;28.70;59.00;;;29.19;41.58;95117.13;6178268;23;20193;-56
2022/09/09 10:16:30;;;;;;;7.47;6.33;;;28.60;58.60;;;29.05;41.28;95112.09;6177873;23;20397;-57
2022/09/09 10:19:02;;;;;;;11.60;6.73;;;28.40;58.70;;;28.95;41.68;95114.66;6177993;23;20428;-56
2022/09/09 10:21:58;;;;;;;8.07;6.70;;;28.30;58.90;;;28.83;41.64;95112.06;6177518;23;20232;-55
2022/09/09 10:24:51;;;;;;;14.97;6.50;;;28.20;59.30;;;28.74;42.22;95114.38;6177955;23;20196;-58